sensor_id;sensor_type;location;lat;lon;timestamp;temperature;humidity
23471;DHT22;11908;50.806;4.424;2023-04-19T00:01:24;9.90;99.90
23471;DHT22;11908;50.806;4.424;2023-04-19T00:03:50;9.90;99.90
23471;DHT22;11908;50.806;4.424;2023-04-19T00:06:16;9.90;99.90
23471;DHT22;11908;50.806;4.424;2023-04-19T00:08:42;9.90;99.90
23471;DHT22;11908;50.806;4.424;2023-04-19T00:11:08;9.90;99.90
23471;DHT22;11908;50.806;4.424;2023-04-19T00:13:37;9.90;99.90
23471;DHT22;11908;50.806;4.424;2023-04-19T00:16:02;9.80;99.90
23471;DHT22;11908;50.806;4.424;2023-04-19T00:18:28;9.80;99.90
23471;DHT22;11908;50.806;4.424;2023-04-19T00:20:54;9.80;99.90
23471;DHT22;11908;50.806;4.424;2023-04-19T00:23:21;9.80;99.90
23471;DHT22;11908;50.806;4.424;2023-04-19T00:25:47;9.80;99.90
23471;DHT22;11908;50.806;4.424;2023-04-19T00:28:13;9.70;99.90
23471;DHT22;11908;50.806;4.424;2023-04-19T00:30:39;9.80;99.90
23471;DHT22;11908;50.806;4.424;2023-04-19T00:33:05;9.80;99.90
23471;DHT22;11908;50.806;4.424;2023-04-19T00:35:40;9.60;99.90
23471;DHT22;11908;50.806;4.424;2023-04-19T00:38:08;9.70;99.90
23471;DHT22;11908;50.806;4.424;2023-04-19T00:40:35;9.70;99.90
23471;DHT22;11908;50.806;4.424;2023-04-19T00:43:01;9.60;99.90
23471;DHT22;11908;50.806;4.424;2023-04-19T00:45:27;9.70;99.90
23471;DHT22;11908;50.806;4.424;2023-04-19T00:47:53;9.70;99.90
23471;DHT22;11908;50.806;4.424;2023-04-19T00:50:19;9.70;99.90
23471;DHT22;11908;50.806;4.424;2023-04-19T00:52:45;9.60;99.90
23471;DHT22;11908;50.806;4.424;2023-04-19T00:55:11;9.50;99.90
23471;DHT22;11908;50.806;4.424;2023-04-19T00:57:37;9.60;99.90
23471;DHT22;11908;50.806;4.424;2023-04-19T01:00:03;9.50;99.90
23471;DHT22;11908;50.806;4.424;2023-04-19T01:02:34;9.40;99.90
23471;DHT22;11908;50.806;4.424;2023-04-19T01:05:00;9.50;99.90
23471;DHT22;11908;50.806;4.424;2023-04-19T01:07:26;9.40;99.90
23471;DHT22;11908;50.806;4.424;2023-04-19T01:09:52;9.40;99.90
23471;DHT22;11908;50.806;4.424;2023-04-19T01:12:25;9.40;99.90
23471;DHT22;11908;50.806;4.424;2023-04-19T01:14:51;9.40;99.90
23471;DHT22;11908;50.806;4.424;2023-04-19T01:17:17;9.40;99.90
23471;DHT22;11908;50.806;4.424;2023-04-19T01:19:43;9.40;99.90
23471;DHT22;11908;50.806;4.424;2023-04-19T01:22:13;9.40;99.90
23471;DHT22;11908;50.806;4.424;2023-04-19T01:24:39;9.30;99.90
23471;DHT22;11908;50.806;4.424;2023-04-19T01:27:05;9.20;99.90
23471;DHT22;11908;50.806;4.424;2023-04-19T01:29:31;9.30;99.90
23471;DHT22;11908;50.806;4.424;2023-04-19T01:31:56;9.30;99.90
23471;DHT22;11908;50.806;4.424;2023-04-19T01:34:22;9.20;99.90
23471;DHT22;11908;50.806;4.424;2023-04-19T01:36:48;9.20;99.90
23471;DHT22;11908;50.806;4.424;2023-04-19T01:39:14;9.20;99.90
23471;DHT22;11908;50.806;4.424;2023-04-19T01:41:39;9.20;99.90
23471;DHT22;11908;50.806;4.424;2023-04-19T01:44:05;9.20;99.90
23471;DHT22;11908;50.806;4.424;2023-04-19T01:46:31;9.20;99.90
23471;DHT22;11908;50.806;4.424;2023-04-19T01:48:56;9.30;99.90
23471;DHT22;11908;50.806;4.424;2023-04-19T01:51:22;9.20;99.90
23471;DHT22;11908;50.806;4.424;2023-04-19T01:53:48;9.30;99.90
23471;DHT22;11908;50.806;4.424;2023-04-19T01:56:18;9.20;99.90
23471;DHT22;11908;50.806;4.424;2023-04-19T01:58:44;9.30;99.90
23471;DHT22;11908;50.806;4.424;2023-04-19T02:01:10;9.40;99.90
23471;DHT22;11908;50.806;4.424;2023-04-19T02:03:38;9.50;99.90
23471;DHT22;11908;50.806;4.424;2023-04-19T02:06:03;9.50;99.90
23471;DHT22;11908;50.806;4.424;2023-04-19T02:08:29;9.40;99.90
23471;DHT22;11908;50.806;4.424;2023-04-19T02:10:55;9.50;99.90
23471;DHT22;11908;50.806;4.424;2023-04-19T02:13:21;9.50;99.90
23471;DHT22;11908;50.806;4.424;2023-04-19T02:15:47;9.50;99.90
23471;DHT22;11908;50.806;4.424;2023-04-19T02:18:13;9.50;99.90
23471;DHT22;11908;50.806;4.424;2023-04-19T02:20:39;9.60;99.90
23471;DHT22;11908;50.806;4.424;2023-04-19T02:23:05;9.60;99.90
23471;DHT22;11908;50.806;4.424;2023-04-19T02:25:30;9.60;99.90
23471;DHT22;11908;50.806;4.424;2023-04-19T02:27:56;9.60;99.90
23471;DHT22;11908;50.806;4.424;2023-04-19T02:30:22;9.70;99.90
23471;DHT22;11908;50.806;4.424;2023-04-19T02:32:48;9.70;99.90
23471;DHT22;11908;50.806;4.424;2023-04-19T02:35:14;9.80;99.90
23471;DHT22;11908;50.806;4.424;2023-04-19T02:37:40;9.90;99.90
23471;DHT22;11908;50.806;4.424;2023-04-19T02:40:06;9.90;99.90
23471;DHT22;11908;50.806;4.424;2023-04-19T02:42:32;10.10;99.90
23471;DHT22;11908;50.806;4.424;2023-04-19T02:44:58;10.10;99.90
23471;DHT22;11908;50.806;4.424;2023-04-19T02:47:23;10.10;99.90
23471;DHT22;11908;50.806;4.424;2023-04-19T02:49:49;10.20;99.90
23471;DHT22;11908;50.806;4.424;2023-04-19T02:52:15;10.20;99.90
23471;DHT22;11908;50.806;4.424;2023-04-19T02:54:41;10.10;99.90
23471;DHT22;11908;50.806;4.424;2023-04-19T02:57:06;10.20;99.90
23471;DHT22;11908;50.806;4.424;2023-04-19T02:59:32;10.20;99.90
23471;DHT22;11908;50.806;4.424;2023-04-19T03:01:57;10.30;99.90
23471;DHT22;11908;50.806;4.424;2023-04-19T03:04:23;10.40;99.90
23471;DHT22;11908;50.806;4.424;2023-04-19T03:06:50;10.40;99.90
23471;DHT22;11908;50.806;4.424;2023-04-19T03:09:16;10.30;99.90
23471;DHT22;11908;50.806;4.424;2023-04-19T03:11:42;10.30;99.90
23471;DHT22;11908;50.806;4.424;2023-04-19T03:14:07;10.30;99.90
23471;DHT22;11908;50.806;4.424;2023-04-19T03:16:33;10.40;99.90
23471;DHT22;11908;50.806;4.424;2023-04-19T03:18:59;10.40;99.90
23471;DHT22;11908;50.806;4.424;2023-04-19T03:21:24;10.30;99.90
23471;DHT22;11908;50.806;4.424;2023-04-19T03:23:52;10.30;99.90
23471;DHT22;11908;50.806;4.424;2023-04-19T03:26:18;10.40;99.90
23471;DHT22;11908;50.806;4.424;2023-04-19T03:28:44;10.40;99.90
23471;DHT22;11908;50.806;4.424;2023-04-19T03:31:10;10.40;99.90
23471;DHT22;11908;50.806;4.424;2023-04-19T03:33:35;10.20;99.90
23471;DHT22;11908;50.806;4.424;2023-04-19T03:36:01;10.20;99.90
23471;DHT22;11908;50.806;4.424;2023-04-19T03:38:26;10.10;99.90
23471;DHT22;11908;50.806;4.424;2023-04-19T03:40:52;10.00;99.90
23471;DHT22;11908;50.806;4.424;2023-04-19T03:43:20;10.00;99.90
23471;DHT22;11908;50.806;4.424;2023-04-19T03:45:46;10.00;99.90
23471;DHT22;11908;50.806;4.424;2023-04-19T03:48:12;10.00;99.90
23471;DHT22;11908;50.806;4.424;2023-04-19T03:50:37;10.00;99.90
23471;DHT22;11908;50.806;4.424;2023-04-19T03:53:03;10.00;99.90
23471;DHT22;11908;50.806;4.424;2023-04-19T03:55:30;9.90;99.90
23471;DHT22;11908;50.806;4.424;2023-04-19T03:57:56;9.80;99.90
23471;DHT22;11908;50.806;4.424;2023-04-19T04:00:21;9.80;99.90
23471;DHT22;11908;50.806;4.424;2023-04-19T04:02:47;9.80;99.90
23471;DHT22;11908;50.806;4.424;2023-04-19T04:05:12;9.80;99.90
23471;DHT22;11908;50.806;4.424;2023-04-19T04:07:38;9.80;99.90
23471;DHT22;11908;50.806;4.424;2023-04-19T04:10:04;9.80;99.90
23471;DHT22;11908;50.806;4.424;2023-04-19T04:12:30;9.70;99.90
23471;DHT22;11908;50.806;4.424;2023-04-19T04:14:56;9.80;99.90
23471;DHT22;11908;50.806;4.424;2023-04-19T04:17:22;9.80;99.90
23471;DHT22;11908;50.806;4.424;2023-04-19T04:19:48;9.80;99.90
23471;DHT22;11908;50.806;4.424;2023-04-19T04:22:15;9.90;99.90
23471;DHT22;11908;50.806;4.424;2023-04-19T04:24:41;9.90;99.90
23471;DHT22;11908;50.806;4.424;2023-04-19T04:27:08;9.80;99.90
23471;DHT22;11908;50.806;4.424;2023-04-19T04:29:35;9.80;99.90
23471;DHT22;11908;50.806;4.424;2023-04-19T04:32:05;9.80;99.90
23471;DHT22;11908;50.806;4.424;2023-04-19T04:34:33;9.60;99.90
23471;DHT22;11908;50.806;4.424;2023-04-19T04:36:58;9.60;99.90
23471;DHT22;11908;50.806;4.424;2023-04-19T04:39:24;9.50;99.90
23471;DHT22;11908;50.806;4.424;2023-04-19T04:41:50;9.50;99.90
23471;DHT22;11908;50.806;4.424;2023-04-19T04:44:17;9.50;99.90
23471;DHT22;11908;50.806;4.424;2023-04-19T04:46:45;9.50;99.90
23471;DHT22;11908;50.806;4.424;2023-04-19T04:49:11;9.60;99.90
23471;DHT22;11908;50.806;4.424;2023-04-19T04:51:36;9.60;99.90
23471;DHT22;11908;50.806;4.424;2023-04-19T04:54:02;9.60;99.90
23471;DHT22;11908;50.806;4.424;2023-04-19T04:56:29;9.60;99.90
23471;DHT22;11908;50.806;4.424;2023-04-19T04:58:55;9.60;99.90
23471;DHT22;11908;50.806;4.424;2023-04-19T05:01:21;9.70;99.90
23471;DHT22;11908;50.806;4.424;2023-04-19T05:03:48;9.70;99.90
23471;DHT22;11908;50.806;4.424;2023-04-19T05:06:14;9.80;99.90
23471;DHT22;11908;50.806;4.424;2023-04-19T05:08:40;9.90;99.90
23471;DHT22;11908;50.806;4.424;2023-04-19T05:11:06;10.00;99.90
23471;DHT22;11908;50.806;4.424;2023-04-19T05:13:31;10.10;99.90
23471;DHT22;11908;50.806;4.424;2023-04-19T05:15:57;10.40;99.90
23471;DHT22;11908;50.806;4.424;2023-04-19T05:18:22;10.60;99.90
23471;DHT22;11908;50.806;4.424;2023-04-19T05:20:49;10.90;99.90
23471;DHT22;11908;50.806;4.424;2023-04-19T05:23:14;11.00;99.90
23471;DHT22;11908;50.806;4.424;2023-04-19T05:25:41;11.20;99.90
23471;DHT22;11908;50.806;4.424;2023-04-19T05:28:07;11.30;99.90
23471;DHT22;11908;50.806;4.424;2023-04-19T05:30:32;11.40;99.90
23471;DHT22;11908;50.806;4.424;2023-04-19T05:32:58;11.50;99.90
23471;DHT22;11908;50.806;4.424;2023-04-19T05:35:24;11.60;99.90
23471;DHT22;11908;50.806;4.424;2023-04-19T05:37:50;11.70;99.90
23471;DHT22;11908;50.806;4.424;2023-04-19T05:40:16;12.00;99.90
23471;DHT22;11908;50.806;4.424;2023-04-19T05:42:42;12.30;99.90
23471;DHT22;11908;50.806;4.424;2023-04-19T05:45:08;12.50;99.90
23471;DHT22;11908;50.806;4.424;2023-04-19T05:47:34;12.80;99.90
23471;DHT22;11908;50.806;4.424;2023-04-19T05:50:00;13.00;99.90
23471;DHT22;11908;50.806;4.424;2023-04-19T05:52:25;13.10;99.90
23471;DHT22;11908;50.806;4.424;2023-04-19T05:54:51;12.80;99.90
23471;DHT22;11908;50.806;4.424;2023-04-19T05:57:16;12.70;99.90
23471;DHT22;11908;50.806;4.424;2023-04-19T05:59:42;12.70;99.90
23471;DHT22;11908;50.806;4.424;2023-04-19T06:02:08;12.80;99.90
23471;DHT22;11908;50.806;4.424;2023-04-19T06:04:34;12.50;99.90
23471;DHT22;11908;50.806;4.424;2023-04-19T06:06:59;12.40;99.90
23471;DHT22;11908;50.806;4.424;2023-04-19T06:09:25;12.40;99.90
23471;DHT22;11908;50.806;4.424;2023-04-19T06:11:51;12.50;99.90
23471;DHT22;11908;50.806;4.424;2023-04-19T06:14:19;12.60;99.90
23471;DHT22;11908;50.806;4.424;2023-04-19T06:16:44;12.70;99.90
23471;DHT22;11908;50.806;4.424;2023-04-19T06:19:10;12.40;99.90
23471;DHT22;11908;50.806;4.424;2023-04-19T06:21:36;12.10;99.90
23471;DHT22;11908;50.806;4.424;2023-04-19T06:24:02;12.10;99.90
23471;DHT22;11908;50.806;4.424;2023-04-19T06:26:27;11.80;99.90
23471;DHT22;11908;50.806;4.424;2023-04-19T06:28:53;11.80;99.90
23471;DHT22;11908;50.806;4.424;2023-04-19T06:31:19;12.00;99.90
23471;DHT22;11908;50.806;4.424;2023-04-19T06:33:45;12.20;99.90
23471;DHT22;11908;50.806;4.424;2023-04-19T06:36:11;12.10;99.90
23471;DHT22;11908;50.806;4.424;2023-04-19T06:38:36;11.80;99.90
23471;DHT22;11908;50.806;4.424;2023-04-19T06:41:06;11.70;99.90
23471;DHT22;11908;50.806;4.424;2023-04-19T06:43:31;11.70;99.90
23471;DHT22;11908;50.806;4.424;2023-04-19T06:45:58;11.80;99.90
23471;DHT22;11908;50.806;4.424;2023-04-19T06:48:24;11.80;99.90
23471;DHT22;11908;50.806;4.424;2023-04-19T06:50:50;12.40;99.90
23471;DHT22;11908;50.806;4.424;2023-04-19T06:53:16;12.60;99.90
23471;DHT22;11908;50.806;4.424;2023-04-19T06:55:42;12.70;99.90
23471;DHT22;11908;50.806;4.424;2023-04-19T06:58:07;12.80;99.90
23471;DHT22;11908;50.806;4.424;2023-04-19T07:00:38;13.00;99.90
23471;DHT22;11908;50.806;4.424;2023-04-19T07:03:03;12.60;99.90
23471;DHT22;11908;50.806;4.424;2023-04-19T07:05:30;12.70;99.90
23471;DHT22;11908;50.806;4.424;2023-04-19T07:07:56;13.10;99.90
23471;DHT22;11908;50.806;4.424;2023-04-19T07:10:21;13.70;99.90
23471;DHT22;11908;50.806;4.424;2023-04-19T07:12:47;14.10;99.90
23471;DHT22;11908;50.806;4.424;2023-04-19T07:15:13;13.90;99.90
23471;DHT22;11908;50.806;4.424;2023-04-19T07:17:39;14.10;99.90
23471;DHT22;11908;50.806;4.424;2023-04-19T07:20:05;14.30;99.90
23471;DHT22;11908;50.806;4.424;2023-04-19T07:22:31;14.40;99.90
23471;DHT22;11908;50.806;4.424;2023-04-19T07:24:57;14.10;99.90
23471;DHT22;11908;50.806;4.424;2023-04-19T07:27:23;14.00;99.90
23471;DHT22;11908;50.806;4.424;2023-04-19T07:29:49;14.00;99.90
23471;DHT22;11908;50.806;4.424;2023-04-19T07:32:15;14.00;99.90
23471;DHT22;11908;50.806;4.424;2023-04-19T07:34:41;13.90;99.90
23471;DHT22;11908;50.806;4.424;2023-04-19T07:37:08;13.80;99.90
23471;DHT22;11908;50.806;4.424;2023-04-19T07:39:33;13.80;99.90
23471;DHT22;11908;50.806;4.424;2023-04-19T07:41:59;14.10;99.90
23471;DHT22;11908;50.806;4.424;2023-04-19T07:44:26;14.10;99.90
23471;DHT22;11908;50.806;4.424;2023-04-19T07:46:51;14.20;99.90
23471;DHT22;11908;50.806;4.424;2023-04-19T07:49:17;14.40;99.90
23471;DHT22;11908;50.806;4.424;2023-04-19T07:51:43;14.30;99.90
23471;DHT22;11908;50.806;4.424;2023-04-19T07:54:08;14.80;99.90
23471;DHT22;11908;50.806;4.424;2023-04-19T07:56:34;15.20;99.90
23471;DHT22;11908;50.806;4.424;2023-04-19T07:59:00;15.30;99.90
23471;DHT22;11908;50.806;4.424;2023-04-19T08:01:26;15.80;99.90
23471;DHT22;11908;50.806;4.424;2023-04-19T08:03:52;16.00;99.90
23471;DHT22;11908;50.806;4.424;2023-04-19T08:06:17;16.40;99.90
23471;DHT22;11908;50.806;4.424;2023-04-19T08:08:43;17.00;99.90
23471;DHT22;11908;50.806;4.424;2023-04-19T08:11:08;17.00;99.90
23471;DHT22;11908;50.806;4.424;2023-04-19T08:13:34;17.40;99.90
23471;DHT22;11908;50.806;4.424;2023-04-19T08:16:00;17.70;99.90
23471;DHT22;11908;50.806;4.424;2023-04-19T08:18:26;17.30;99.90
23471;DHT22;11908;50.806;4.424;2023-04-19T08:20:51;17.10;99.90
23471;DHT22;11908;50.806;4.424;2023-04-19T08:23:18;16.90;99.90
23471;DHT22;11908;50.806;4.424;2023-04-19T08:25:43;16.50;99.90
23471;DHT22;11908;50.806;4.424;2023-04-19T08:28:10;16.00;99.90
23471;DHT22;11908;50.806;4.424;2023-04-19T08:30:36;15.50;99.90
23471;DHT22;11908;50.806;4.424;2023-04-19T08:33:02;15.50;99.90
23471;DHT22;11908;50.806;4.424;2023-04-19T08:35:28;16.20;99.90
23471;DHT22;11908;50.806;4.424;2023-04-19T08:37:54;15.80;99.90
23471;DHT22;11908;50.806;4.424;2023-04-19T08:40:19;15.50;99.90
23471;DHT22;11908;50.806;4.424;2023-04-19T08:42:45;15.90;99.90
23471;DHT22;11908;50.806;4.424;2023-04-19T08:45:11;16.60;99.90
23471;DHT22;11908;50.806;4.424;2023-04-19T08:47:39;17.40;99.90
23471;DHT22;11908;50.806;4.424;2023-04-19T08:50:06;17.60;99.90
23471;DHT22;11908;50.806;4.424;2023-04-19T08:52:36;17.80;99.90
23471;DHT22;11908;50.806;4.424;2023-04-19T08:55:07;17.90;99.90
23471;DHT22;11908;50.806;4.424;2023-04-19T08:57:34;18.30;99.90
23471;DHT22;11908;50.806;4.424;2023-04-19T09:00:00;17.80;99.90
23471;DHT22;11908;50.806;4.424;2023-04-19T09:02:26;18.30;99.90
23471;DHT22;11908;50.806;4.424;2023-04-19T09:04:52;18.30;99.90
23471;DHT22;11908;50.806;4.424;2023-04-19T09:07:26;18.10;99.90
23471;DHT22;11908;50.806;4.424;2023-04-19T09:12:35;17.00;99.90
23471;DHT22;11908;50.806;4.424;2023-04-19T09:15:02;17.40;99.90
23471;DHT22;11908;50.806;4.424;2023-04-19T09:17:29;17.80;99.90
23471;DHT22;11908;50.806;4.424;2023-04-19T09:19:56;18.50;99.90
23471;DHT22;11908;50.806;4.424;2023-04-19T09:22:22;19.00;99.90
23471;DHT22;11908;50.806;4.424;2023-04-19T09:24:48;18.90;99.90
23471;DHT22;11908;50.806;4.424;2023-04-19T09:27:29;18.70;99.90
23471;DHT22;11908;50.806;4.424;2023-04-19T09:29:57;18.30;99.90
23471;DHT22;11908;50.806;4.424;2023-04-19T09:32:23;17.80;99.90
23471;DHT22;11908;50.806;4.424;2023-04-19T09:34:59;17.50;99.90
23471;DHT22;11908;50.806;4.424;2023-04-19T09:37:25;17.00;99.90
23471;DHT22;11908;50.806;4.424;2023-04-19T09:39:52;17.00;99.90
23471;DHT22;11908;50.806;4.424;2023-04-19T09:42:18;17.60;99.90
23471;DHT22;11908;50.806;4.424;2023-04-19T09:45:03;17.70;99.90
23471;DHT22;11908;50.806;4.424;2023-04-19T09:47:29;17.80;99.90
23471;DHT22;11908;50.806;4.424;2023-04-19T09:50:08;17.80;99.90
23471;DHT22;11908;50.806;4.424;2023-04-19T09:52:35;17.70;99.90
23471;DHT22;11908;50.806;4.424;2023-04-19T09:55:02;18.10;99.90
23471;DHT22;11908;50.806;4.424;2023-04-19T09:57:32;18.30;99.90
23471;DHT22;11908;50.806;4.424;2023-04-19T09:59:58;18.10;99.90
23471;DHT22;11908;50.806;4.424;2023-04-19T10:02:29;18.30;99.90
23471;DHT22;11908;50.806;4.424;2023-04-19T10:04:57;18.00;99.90
23471;DHT22;11908;50.806;4.424;2023-04-19T10:07:23;18.30;99.90
23471;DHT22;11908;50.806;4.424;2023-04-19T10:09:49;18.70;99.90
23471;DHT22;11908;50.806;4.424;2023-04-19T10:12:16;18.10;99.90
23471;DHT22;11908;50.806;4.424;2023-04-19T10:14:42;17.10;99.90
23471;DHT22;11908;50.806;4.424;2023-04-19T10:17:08;17.20;99.90
23471;DHT22;11908;50.806;4.424;2023-04-19T10:19:34;17.20;99.90
23471;DHT22;11908;50.806;4.424;2023-04-19T10:22:02;17.20;99.90
23471;DHT22;11908;50.806;4.424;2023-04-19T10:24:32;17.70;99.90
23471;DHT22;11908;50.806;4.424;2023-04-19T10:27:10;18.40;99.90
23471;DHT22;11908;50.806;4.424;2023-04-19T10:29:55;18.70;99.90
23471;DHT22;11908;50.806;4.424;2023-04-19T10:32:22;19.00;99.90
23471;DHT22;11908;50.806;4.424;2023-04-19T10:34:51;19.40;99.90
23471;DHT22;11908;50.806;4.424;2023-04-19T10:37:24;18.90;99.90
23471;DHT22;11908;50.806;4.424;2023-04-19T10:39:50;19.10;99.90
23471;DHT22;11908;50.806;4.424;2023-04-19T10:42:16;18.70;99.90
23471;DHT22;11908;50.806;4.424;2023-04-19T10:47:46;20.20;99.90
23471;DHT22;11908;50.806;4.424;2023-04-19T10:50:15;19.40;99.90
23471;DHT22;11908;50.806;4.424;2023-04-19T10:52:40;19.40;99.90
23471;DHT22;11908;50.806;4.424;2023-04-19T10:55:06;19.70;99.90
23471;DHT22;11908;50.806;4.424;2023-04-19T10:58:00;19.70;99.90
23471;DHT22;11908;50.806;4.424;2023-04-19T11:00:27;19.70;99.90
23471;DHT22;11908;50.806;4.424;2023-04-19T11:02:56;19.50;99.90
23471;DHT22;11908;50.806;4.424;2023-04-19T11:05:22;19.00;99.90
23471;DHT22;11908;50.806;4.424;2023-04-19T11:07:47;18.60;99.90
23471;DHT22;11908;50.806;4.424;2023-04-19T11:10:27;18.10;99.90
23471;DHT22;11908;50.806;4.424;2023-04-19T11:12:53;17.70;99.90
23471;DHT22;11908;50.806;4.424;2023-04-19T11:15:21;17.60;99.90
23471;DHT22;11908;50.806;4.424;2023-04-19T11:17:51;17.90;99.90
23471;DHT22;11908;50.806;4.424;2023-04-19T11:20:17;18.00;99.90
23471;DHT22;11908;50.806;4.424;2023-04-19T11:22:46;17.70;99.90
23471;DHT22;11908;50.806;4.424;2023-04-19T11:25:17;17.50;99.90
23471;DHT22;11908;50.806;4.424;2023-04-19T11:27:53;17.50;99.90
23471;DHT22;11908;50.806;4.424;2023-04-19T11:30:21;17.40;99.90
23471;DHT22;11908;50.806;4.424;2023-04-19T11:32:56;17.60;99.90
23471;DHT22;11908;50.806;4.424;2023-04-19T11:35:23;17.80;99.90
23471;DHT22;11908;50.806;4.424;2023-04-19T11:37:49;18.40;99.90
23471;DHT22;11908;50.806;4.424;2023-04-19T11:40:17;18.60;99.90
23471;DHT22;11908;50.806;4.424;2023-04-19T11:42:44;18.00;99.90
23471;DHT22;11908;50.806;4.424;2023-04-19T11:45:10;17.50;99.90
23471;DHT22;11908;50.806;4.424;2023-04-19T11:47:49;17.00;99.90
23471;DHT22;11908;50.806;4.424;2023-04-19T11:50:32;17.00;99.90
23471;DHT22;11908;50.806;4.424;2023-04-19T11:52:59;17.30;99.90
23471;DHT22;11908;50.806;4.424;2023-04-19T11:55:24;17.50;99.90
23471;DHT22;11908;50.806;4.424;2023-04-19T11:57:50;17.80;99.90
23471;DHT22;11908;50.806;4.424;2023-04-19T12:00:26;18.10;99.90
23471;DHT22;11908;50.806;4.424;2023-04-19T12:02:52;18.50;99.90
23471;DHT22;11908;50.806;4.424;2023-04-19T12:05:18;18.80;99.90
23471;DHT22;11908;50.806;4.424;2023-04-19T12:08:01;18.20;99.90
23471;DHT22;11908;50.806;4.424;2023-04-19T12:10:28;17.90;99.90
23471;DHT22;11908;50.806;4.424;2023-04-19T12:12:54;18.10;99.90
23471;DHT22;11908;50.806;4.424;2023-04-19T12:15:19;18.20;99.90
23471;DHT22;11908;50.806;4.424;2023-04-19T12:17:59;18.30;99.90
23471;DHT22;11908;50.806;4.424;2023-04-19T12:20:33;17.40;99.90
23471;DHT22;11908;50.806;4.424;2023-04-19T12:22:59;17.60;99.90
23471;DHT22;11908;50.806;4.424;2023-04-19T12:25:32;17.80;99.90
23471;DHT22;11908;50.806;4.424;2023-04-19T12:27:59;18.10;99.90
23471;DHT22;11908;50.806;4.424;2023-04-19T12:30:25;18.50;99.90
23471;DHT22;11908;50.806;4.424;2023-04-19T12:32:53;18.50;99.90
23471;DHT22;11908;50.806;4.424;2023-04-19T12:35:25;18.50;99.90
23471;DHT22;11908;50.806;4.424;2023-04-19T12:37:52;18.40;99.90
23471;DHT22;11908;50.806;4.424;2023-04-19T12:40:19;18.50;99.90
23471;DHT22;11908;50.806;4.424;2023-04-19T12:42:45;18.30;99.90
23471;DHT22;11908;50.806;4.424;2023-04-19T12:45:12;18.20;99.90
23471;DHT22;11908;50.806;4.424;2023-04-19T12:47:38;18.30;99.90
23471;DHT22;11908;50.806;4.424;2023-04-19T12:50:05;18.30;99.90
23471;DHT22;11908;50.806;4.424;2023-04-19T12:52:31;18.00;99.90
23471;DHT22;11908;50.806;4.424;2023-04-19T12:54:57;17.70;99.90
23471;DHT22;11908;50.806;4.424;2023-04-19T12:57:23;17.40;99.90
23471;DHT22;11908;50.806;4.424;2023-04-19T12:59:48;17.70;99.90
23471;DHT22;11908;50.806;4.424;2023-04-19T13:02:14;18.10;99.90
23471;DHT22;11908;50.806;4.424;2023-04-19T13:04:40;17.50;99.90
23471;DHT22;11908;50.806;4.424;2023-04-19T13:07:05;17.30;99.90
23471;DHT22;11908;50.806;4.424;2023-04-19T13:09:31;17.20;99.90
23471;DHT22;11908;50.806;4.424;2023-04-19T13:11:57;17.30;99.20
23471;DHT22;11908;50.806;4.424;2023-04-19T13:14:26;17.20;99.90
23471;DHT22;11908;50.806;4.424;2023-04-19T13:16:52;17.30;99.90
23471;DHT22;11908;50.806;4.424;2023-04-19T13:19:17;17.40;99.90
23471;DHT22;11908;50.806;4.424;2023-04-19T13:21:43;17.30;99.90
23471;DHT22;11908;50.806;4.424;2023-04-19T13:24:09;17.30;99.90
23471;DHT22;11908;50.806;4.424;2023-04-19T13:26:35;17.40;99.90
23471;DHT22;11908;50.806;4.424;2023-04-19T13:29:01;17.10;96.90
23471;DHT22;11908;50.806;4.424;2023-04-19T13:31:27;17.00;98.00
23471;DHT22;11908;50.806;4.424;2023-04-19T13:33:53;17.10;98.40
23471;DHT22;11908;50.806;4.424;2023-04-19T13:36:19;17.10;98.40
23471;DHT22;11908;50.806;4.424;2023-04-19T13:38:45;17.10;96.20
23471;DHT22;11908;50.806;4.424;2023-04-19T13:41:11;17.00;96.50
23471;DHT22;11908;50.806;4.424;2023-04-19T13:43:36;17.10;96.90
23471;DHT22;11908;50.806;4.424;2023-04-19T13:46:02;17.10;96.00
23471;DHT22;11908;50.806;4.424;2023-04-19T13:48:28;17.00;95.50
23471;DHT22;11908;50.806;4.424;2023-04-19T13:50:58;16.90;97.30
23471;DHT22;11908;50.806;4.424;2023-04-19T13:53:27;16.90;94.60
23471;DHT22;11908;50.806;4.424;2023-04-19T13:55:53;16.90;95.30
23471;DHT22;11908;50.806;4.424;2023-04-19T13:58:20;16.70;94.00
23471;DHT22;11908;50.806;4.424;2023-04-19T14:00:45;16.70;94.30
23471;DHT22;11908;50.806;4.424;2023-04-19T14:03:13;16.70;93.40
23471;DHT22;11908;50.806;4.424;2023-04-19T14:05:39;16.80;92.30
23471;DHT22;11908;50.806;4.424;2023-04-19T14:08:04;16.50;90.00
23471;DHT22;11908;50.806;4.424;2023-04-19T14:10:30;16.40;91.10
23471;DHT22;11908;50.806;4.424;2023-04-19T14:12:56;16.20;90.10
23471;DHT22;11908;50.806;4.424;2023-04-19T14:15:22;16.20;90.90
23471;DHT22;11908;50.806;4.424;2023-04-19T14:17:49;16.40;91.50
23471;DHT22;11908;50.806;4.424;2023-04-19T14:20:16;16.40;86.70
23471;DHT22;11908;50.806;4.424;2023-04-19T14:22:42;16.40;87.10
23471;DHT22;11908;50.806;4.424;2023-04-19T14:25:08;16.40;85.20
23471;DHT22;11908;50.806;4.424;2023-04-19T14:27:34;16.50;84.30
23471;DHT22;11908;50.806;4.424;2023-04-19T14:30:00;16.40;82.50
23471;DHT22;11908;50.806;4.424;2023-04-19T14:32:26;16.30;83.40
23471;DHT22;11908;50.806;4.424;2023-04-19T14:34:52;16.20;88.00
23471;DHT22;11908;50.806;4.424;2023-04-19T14:37:20;16.40;86.90
23471;DHT22;11908;50.806;4.424;2023-04-19T14:39:46;16.40;83.30
23471;DHT22;11908;50.806;4.424;2023-04-19T14:42:12;16.30;84.20
23471;DHT22;11908;50.806;4.424;2023-04-19T14:44:38;16.30;83.70
23471;DHT22;11908;50.806;4.424;2023-04-19T14:47:04;16.20;81.80
23471;DHT22;11908;50.806;4.424;2023-04-19T14:49:29;16.20;84.50
23471;DHT22;11908;50.806;4.424;2023-04-19T14:51:55;16.20;81.00
23471;DHT22;11908;50.806;4.424;2023-04-19T14:54:21;16.10;81.00
23471;DHT22;11908;50.806;4.424;2023-04-19T14:56:46;16.20;81.50
23471;DHT22;11908;50.806;4.424;2023-04-19T14:59:12;16.20;81.10
23471;DHT22;11908;50.806;4.424;2023-04-19T15:01:38;16.10;82.50
23471;DHT22;11908;50.806;4.424;2023-04-19T15:04:03;16.10;83.20
23471;DHT22;11908;50.806;4.424;2023-04-19T15:06:29;16.00;84.80
23471;DHT22;11908;50.806;4.424;2023-04-19T15:08:56;16.10;83.30
23471;DHT22;11908;50.806;4.424;2023-04-19T15:11:21;16.10;85.80
23471;DHT22;11908;50.806;4.424;2023-04-19T15:13:47;16.10;84.00
23471;DHT22;11908;50.806;4.424;2023-04-19T15:16:13;16.00;83.50
23471;DHT22;11908;50.806;4.424;2023-04-19T15:18:39;16.10;84.40
23471;DHT22;11908;50.806;4.424;2023-04-19T15:21:05;15.90;85.10
23471;DHT22;11908;50.806;4.424;2023-04-19T15:23:30;16.00;85.00
23471;DHT22;11908;50.806;4.424;2023-04-19T15:25:56;15.80;83.00
23471;DHT22;11908;50.806;4.424;2023-04-19T15:28:23;15.80;84.40
23471;DHT22;11908;50.806;4.424;2023-04-19T15:30:57;15.70;82.20
23471;DHT22;11908;50.806;4.424;2023-04-19T15:33:23;15.60;83.70
23471;DHT22;11908;50.806;4.424;2023-04-19T15:35:55;15.60;82.30
23471;DHT22;11908;50.806;4.424;2023-04-19T15:38:26;15.50;79.00